Time;durP1;ratioP1;P1;durP2;ratioP2;P2;SDS_P1;SDS_P2;PMS_P1;PMS_P2;Temp;Humidity;BMP_temperature;BMP_pressure;BME280_temperature;BME280_humidity;BME280_pressure;Samples;Min_cycle;Max_cycle;Signal;HPM_P1;HPM_P2
2022/03/12 00:01:17;;;;;;;9.63;4.40;;;;;;;;;;5013782;28;20045;-71
2022/03/12 00:03:47;;;;;;;4.55;4.13;;;;;;;;;;5013708;28;20501;-70
2022/03/12 00:06:17;;;;;;;7.55;4.68;;;;;;;;;;5013861;28;20385;-70
2022/03/12 00:08:46;;;;;;;7.65;4.10;;;;;;;;;;4995884;28;20067;-71
2022/03/12 00:11:22;;;;;;;7.43;4.60;;;;;;;;;;4995658;28;20040;-72
2022/03/12 00:13:51;;;;;;;8.80;5.20;;;;;;;;;;4995976;28;20066;-72
2022/03/12 00:16:23;;;;;;;7.80;4.55;;;;;;;;;;5013246;28;20129;-70
2022/03/12 00:18:58;;;;;;;6.72;4.63;;;;;;;;;;4980940;28;20371;-74
2022/03/12 00:21:35;;;;;;;7.70;4.50;;;;;;;;;;5013207;28;20038;-70
2022/03/12 00:24:04;;;;;;;6.35;4.30;;;;;;;;;;5013501;28;20038;-74
2022/03/12 00:26:33;;;;;;;9.52;4.40;;;;;;;;;;5013465;28;20116;-73
2022/03/12 00:29:01;;;;;;;7.97;4.80;;;;;;;;;;5012597;28;20041;-75
2022/03/12 00:31:29;;;;;;;9.32;4.40;;;;;;;;;;5013188;28;20042;-73
2022/03/12 00:33:57;;;;;;;6.00;4.13;;;;;;;;;;5012836;28;20065;-74
2022/03/12 00:36:24;;;;;;;9.07;4.75;;;;;;;;;;4995524;28;20397;-74
2022/03/12 00:38:51;;;;;;;6.03;3.83;;;;;;;;;;5013135;28;20110;-74
2022/03/12 00:41:19;;;;;;;8.20;4.70;;;;;;;;;;5012925;28;20076;-74
2022/03/12 00:43:46;;;;;;;7.80;4.53;;;;;;;;;;5010065;28;20052;-72
2022/03/12 00:46:14;;;;;;;7.32;4.43;;;;;;;;;;5012772;28;20050;-72
2022/03/12 00:48:41;;;;;;;6.78;4.32;;;;;;;;;;5013030;28;20061;-74
2022/03/12 00:51:09;;;;;;;6.95;4.35;;;;;;;;;;5012839;28;20105;-75
2022/03/12 00:53:38;;;;;;;9.25;4.50;;;;;;;;;;5012646;28;20409;-71
2022/03/12 00:56:09;;;;;;;7.18;4.38;;;;;;;;;;5005453;28;20045;-71
2022/03/12 00:58:36;;;;;;;7.40;4.28;;;;;;;;;;4994458;28;20054;-71
2022/03/12 01:01:05;;;;;;;6.75;4.75;;;;;;;;;;5013180;28;20449;-72
2022/03/12 01:03:33;;;;;;;13.60;4.43;;;;;;;;;;5012959;28;20089;-71
2022/03/12 01:06:01;;;;;;;9.60;4.53;;;;;;;;;;5012854;28;20066;-72
2022/03/12 01:08:30;;;;;;;6.72;4.85;;;;;;;;;;5012901;28;20452;-72
2022/03/12 01:11:00;;;;;;;9.52;5.30;;;;;;;;;;5012550;28;20446;-68
2022/03/12 01:13:28;;;;;;;7.57;4.78;;;;;;;;;;5012872;28;20048;-72
2022/03/12 01:15:55;;;;;;;9.48;4.45;;;;;;;;;;5014052;28;20037;-72
2022/03/12 01:18:23;;;;;;;9.80;5.05;;;;;;;;;;5033063;28;20045;-67
2022/03/12 01:20:53;;;;;;;8.05;5.15;;;;;;;;;;5015021;28;20049;-71
2022/03/12 01:23:23;;;;;;;9.02;5.55;;;;;;;;;;5032203;28;20056;-71
2022/03/12 01:25:52;;;;;;;8.48;4.70;;;;;;;;;;5032532;28;20042;-68
2022/03/12 01:28:20;;;;;;;7.90;4.85;;;;;;;;;;5032453;28;20037;-68
2022/03/12 01:30:48;;;;;;;8.00;5.07;;;;;;;;;;5032392;28;20038;-71
2022/03/12 01:33:18;;;;;;;8.88;5.07;;;;;;;;;;5032458;28;20056;-68
2022/03/12 01:35:45;;;;;;;10.55;4.95;;;;;;;;;;5032512;28;20404;-71
2022/03/12 01:38:13;;;;;;;12.60;5.20;;;;;;;;;;5032456;28;20038;-67
2022/03/12 01:40:40;;;;;;;9.43;5.15;;;;;;;;;;5034564;28;20501;-71
2022/03/12 01:43:08;;;;;;;11.35;5.50;;;;;;;;;;5036330;28;20049;-68
2022/03/12 01:45:36;;;;;;;8.98;4.80;;;;;;;;;;5018365;28;20049;-72
2022/03/12 01:48:05;;;;;;;9.55;5.13;;;;;;;;;;5018545;28;20096;-69
2022/03/12 01:50:34;;;;;;;12.48;4.88;;;;;;;;;;5036421;28;20042;-72
2022/03/12 01:53:09;;;;;;;9.98;4.85;;;;;;;;;;5036183;28;20489;-71
2022/03/12 01:55:40;;;;;;;9.27;4.97;;;;;;;;;;5036659;28;20489;-69
2022/03/12 01:58:08;;;;;;;8.70;5.03;;;;;;;;;;5018536;28;20041;-71
2022/03/12 02:00:43;;;;;;;12.60;6.10;;;;;;;;;;5036145;28;20065;-71
2022/03/12 02:03:11;;;;;;;9.13;4.97;;;;;;;;;;5035991;28;20384;-69
2022/03/12 02:05:40;;;;;;;8.25;5.15;;;;;;;;;;5036184;28;20041;-71
2022/03/12 02:08:13;;;;;;;8.77;5.53;;;;;;;;;;5036040;28;20493;-67
2022/03/12 02:10:44;;;;;;;12.40;5.60;;;;;;;;;;5036017;28;20037;-71
2022/03/12 02:13:12;;;;;;;8.60;5.05;;;;;;;;;;5034727;28;20483;-69
2022/03/12 02:15:41;;;;;;;9.90;5.57;;;;;;;;;;5036064;28;20048;-69
2022/03/12 02:18:09;;;;;;;11.77;5.05;;;;;;;;;;5035108;28;20049;-69
2022/03/12 02:20:38;;;;;;;9.18;5.28;;;;;;;;;;5035623;28;20045;-67
2022/03/12 02:23:09;;;;;;;9.63;5.20;;;;;;;;;;5035568;28;20041;-68
2022/03/12 02:25:36;;;;;;;8.45;5.40;;;;;;;;;;5035655;28;20038;-68
2022/03/12 02:28:13;;;;;;;10.18;4.95;;;;;;;;;;5018151;28;20097;-71
2022/03/12 02:30:47;;;;;;;10.20;5.70;;;;;;;;;;5017980;28;20056;-68
2022/03/12 02:33:17;;;;;;;8.65;5.25;;;;;;;;;;5035318;28;20043;-72
2022/03/12 02:35:46;;;;;;;7.55;4.90;;;;;;;;;;5017838;28;20041;-72
2022/03/12 02:38:19;;;;;;;9.80;5.32;;;;;;;;;;5035662;28;20041;-72
2022/03/12 02:40:48;;;;;;;9.18;5.38;;;;;;;;;;5035273;28;20037;-71
2022/03/12 02:43:21;;;;;;;14.73;5.80;;;;;;;;;;5017777;28;20050;-72
2022/03/12 02:45:50;;;;;;;9.02;5.38;;;;;;;;;;5017503;28;20096;-69
2022/03/12 02:48:18;;;;;;;10.10;5.40;;;;;;;;;;5017507;28;20059;-71
2022/03/12 02:50:48;;;;;;;6.35;4.88;;;;;;;;;;5017109;28;20041;-71
2022/03/12 02:53:17;;;;;;;8.48;5.43;;;;;;;;;;5034166;28;20045;-70
2022/03/12 02:55:46;;;;;;;8.05;5.68;;;;;;;;;;5034276;28;20044;-68
2022/03/12 02:58:16;;;;;;;7.80;5.60;;;;;;;;;;5033574;28;20052;-71
2022/03/12 03:00:44;;;;;;;8.65;5.50;;;;;;;;;;5034913;28;20041;-71
2022/03/12 03:03:11;;;;;;;8.65;5.30;;;;;;;;;;5016965;28;20095;-71
2022/03/12 03:05:47;;;;;;;8.18;4.97;;;;;;;;;;5035084;28;20132;-70
2022/03/12 03:08:20;;;;;;;7.45;5.30;;;;;;;;;;5034827;28;20467;-68
2022/03/12 03:10:50;;;;;;;6.45;5.10;;;;;;;;;;5034262;28;20128;-72
2022/03/12 03:13:18;;;;;;;9.32;5.40;;;;;;;;;;5036974;28;20073;-72
2022/03/12 03:15:47;;;;;;;10.40;5.40;;;;;;;;;;5034760;28;20172;-72
2022/03/12 03:18:16;;;;;;;5.93;5.07;;;;;;;;;;5035101;28;20046;-72
2022/03/12 03:20:44;;;;;;;7.55;5.25;;;;;;;;;;5034074;28;20046;-69
2022/03/12 03:23:12;;;;;;;9.70;5.30;;;;;;;;;;5034279;28;20076;-71
2022/03/12 03:25:47;;;;;;;6.53;4.80;;;;;;;;;;5034678;28;20582;-71
2022/03/12 03:28:16;;;;;;;9.35;5.38;;;;;;;;;;5034428;28;20411;-72
2022/03/12 03:30:44;;;;;;;7.00;5.35;;;;;;;;;;5034347;28;20441;-72
2022/03/12 03:33:13;;;;;;;7.75;5.40;;;;;;;;;;5034184;28;20112;-71
2022/03/12 03:35:41;;;;;;;7.70;5.10;;;;;;;;;;5033927;28;20575;-71
2022/03/12 03:38:09;;;;;;;11.25;6.30;;;;;;;;;;5034401;28;20049;-72
2022/03/12 03:40:37;;;;;;;11.68;6.65;;;;;;;;;;5033652;28;20516;-68
2022/03/12 03:43:09;;;;;;;11.07;6.07;;;;;;;;;;5034028;28;20041;-72
2022/03/12 03:45:36;;;;;;;8.98;6.00;;;;;;;;;;5016017;28;20050;-71
2022/03/12 03:48:04;;;;;;;9.18;6.28;;;;;;;;;;5033978;28;20137;-70
2022/03/12 03:50:32;;;;;;;12.27;6.38;;;;;;;;;;5033915;28;20064;-69
2022/03/12 03:53:04;;;;;;;11.93;6.00;;;;;;;;;;5034159;28;20049;-72
2022/03/12 03:55:32;;;;;;;10.90;5.63;;;;;;;;;;5016867;28;20072;-72
2022/03/12 03:58:00;;;;;;;7.53;5.65;;;;;;;;;;5033497;28;20158;-69
2022/03/12 04:00:28;;;;;;;10.10;5.78;;;;;;;;;;5033954;28;20045;-71
2022/03/12 04:03:02;;;;;;;10.27;5.65;;;;;;;;;;5033733;28;20042;-72
2022/03/12 04:05:35;;;;;;;18.20;8.38;;;;;;;;;;5033573;28;20092;-72
2022/03/12 04:08:07;;;;;;;8.02;5.90;;;;;;;;;;5016189;28;20045;-72
2022/03/12 04:10:35;;;;;;;6.75;5.18;;;;;;;;;;5032927;28;20155;-68
2022/03/12 04:13:24;;;;;;;9.32;5.35;;;;;;;;;;5033486;28;20100;-69
2022/03/12 04:15:53;;;;;;;7.03;5.35;;;;;;;;;;5033451;28;20037;-73
2022/03/12 04:18:21;;;;;;;7.43;5.80;;;;;;;;;;5033322;28;20519;-70
2022/03/12 04:20:51;;;;;;;6.95;5.38;;;;;;;;;;5033209;28;20048;-74
2022/03/12 04:23:24;;;;;;;9.07;5.75;;;;;;;;;;5033091;28;20576;-74
2022/03/12 04:25:56;;;;;;;8.70;5.78;;;;;;;;;;5033190;28;20113;-71
2022/03/12 04:28:24;;;;;;;9.13;5.53;;;;;;;;;;5015709;28;20041;-71
2022/03/12 04:30:51;;;;;;;7.82;5.75;;;;;;;;;;5015315;28;20558;-68
2022/03/12 04:33:19;;;;;;;8.27;5.47;;;;;;;;;;5033287;28;20045;-71
2022/03/12 04:35:47;;;;;;;12.48;6.38;;;;;;;;;;5033275;28;20496;-71
2022/03/12 04:38:16;;;;;;;9.00;6.10;;;;;;;;;;5033568;28;20099;-68
2022/03/12 04:40:44;;;;;;;9.73;6.40;;;;;;;;;;5033186;28;20072;-68
2022/03/12 04:43:18;;;;;;;11.00;6.72;;;;;;;;;;5033184;28;20072;-69
2022/03/12 04:45:47;;;;;;;8.93;6.38;;;;;;;;;;5015165;28;20487;-68
2022/03/12 04:48:15;;;;;;;8.38;6.20;;;;;;;;;;5033197;28;20113;-69
2022/03/12 04:50:42;;;;;;;10.88;6.18;;;;;;;;;;5015386;28;20389;-70
2022/03/12 04:53:10;;;;;;;9.88;6.28;;;;;;;;;;5033308;28;20532;-71
2022/03/12 04:55:38;;;;;;;10.32;5.95;;;;;;;;;;5015629;28;20037;-69
2022/03/12 04:58:07;;;;;;;6.60;5.88;;;;;;;;;;5015132;28;20037;-72
2022/03/12 05:00:40;;;;;;;7.20;5.75;;;;;;;;;;5032689;28;20040;-71
2022/03/12 05:03:10;;;;;;;7.35;5.80;;;;;;;;;;5015489;28;20455;-70
2022/03/12 05:05:41;;;;;;;8.57;5.90;;;;;;;;;;5032920;28;20080;-74
2022/03/12 05:08:15;;;;;;;8.45;5.72;;;;;;;;;;5015204;28;20064;-72
2022/03/12 05:10:44;;;;;;;11.65;6.63;;;;;;;;;;5032425;28;20042;-74
2022/03/12 05:13:12;;;;;;;9.15;6.05;;;;;;;;;;5032746;28;20040;-72
2022/03/12 05:15:40;;;;;;;6.97;5.80;;;;;;;;;;5032052;28;20045;-74
2022/03/12 05:18:11;;;;;;;10.38;6.00;;;;;;;;;;5032518;28;20049;-74
2022/03/12 05:20:43;;;;;;;13.48;6.18;;;;;;;;;;5014865;28;20507;-74
2022/03/12 05:23:11;;;;;;;13.20;6.22;;;;;;;;;;5032415;28;20386;-71
2022/03/12 05:25:46;;;;;;;8.43;5.93;;;;;;;;;;5024689;28;20095;-70
2022/03/12 05:28:15;;;;;;;9.30;5.43;;;;;;;;;;5032421;28;20481;-71
2022/03/12 05:30:45;;;;;;;11.88;6.40;;;;;;;;;;5032508;28;20044;-72
2022/03/12 05:33:12;;;;;;;12.35;6.50;;;;;;;;;;5032253;28;20449;-69
2022/03/12 05:35:42;;;;;;;12.95;6.68;;;;;;;;;;5014424;28;20052;-72
2022/03/12 05:38:11;;;;;;;7.88;6.20;;;;;;;;;;5032820;28;20045;-74
2022/03/12 05:40:44;;;;;;;9.38;6.40;;;;;;;;;;5014216;28;20055;-71
2022/03/12 05:43:13;;;;;;;8.45;6.10;;;;;;;;;;5014708;28;20049;-74
2022/03/12 05:45:45;;;;;;;8.73;6.45;;;;;;;;;;5030124;28;20038;-69
2022/03/12 05:48:14;;;;;;;10.23;6.57;;;;;;;;;;5015028;28;20121;-72
2022/03/12 05:50:44;;;;;;;8.60;6.22;;;;;;;;;;5012840;28;20409;-70
2022/03/12 05:53:13;;;;;;;12.77;6.43;;;;;;;;;;5027848;28;20033;-74
2022/03/12 05:55:41;;;;;;;19.48;6.60;;;;;;;;;;5032485;28;20436;-69
2022/03/12 05:58:15;;;;;;;8.45;5.80;;;;;;;;;;5031918;28;20049;-72
2022/03/12 06:00:46;;;;;;;14.80;6.88;;;;;;;;;;5021353;28;20034;-72
2022/03/12 06:03:13;;;;;;;10.57;6.43;;;;;;;;;;4997758;28;20042;-72
2022/03/12 06:05:42;;;;;;;12.20;7.65;;;;;;;;;;4997692;28;20035;-71
2022/03/12 06:08:21;;;;;;;9.05;6.63;;;;;;;;;;4992123;28;20088;-68
2022/03/12 06:10:55;;;;;;;10.25;6.43;;;;;;;;;;4992433;28;20042;-72
2022/03/12 06:13:27;;;;;;;9.05;6.75;;;;;;;;;;4991738;28;20053;-71
2022/03/12 06:15:58;;;;;;;9.55;6.68;;;;;;;;;;4992323;28;20050;-70
2022/03/12 06:18:27;;;;;;;8.15;6.60;;;;;;;;;;5011227;28;20467;-72
2022/03/12 06:20:55;;;;;;;10.02;6.20;;;;;;;;;;5010901;28;20129;-71
2022/03/12 06:23:22;;;;;;;9.23;6.07;;;;;;;;;;5011969;28;20408;-73
2022/03/12 06:25:51;;;;;;;9.30;5.45;;;;;;;;;;5012333;28;20041;-73
2022/03/12 06:28:19;;;;;;;6.97;5.28;;;;;;;;;;5025689;28;20057;-71
2022/03/12 06:30:53;;;;;;;7.50;5.40;;;;;;;;;;5035558;28;20069;-70
2022/03/12 06:33:22;;;;;;;9.18;5.25;;;;;;;;;;5018774;28;20118;-71
2022/03/12 06:35:52;;;;;;;6.60;5.00;;;;;;;;;;5054130;28;20043;-73
2022/03/12 06:38:20;;;;;;;6.80;5.28;;;;;;;;;;5054667;28;20437;-74
2022/03/12 06:40:49;;;;;;;8.68;5.68;;;;;;;;;;5046288;28;20037;-70
2022/03/12 06:43:19;;;;;;;10.30;5.28;;;;;;;;;;5035091;28;20037;-70
2022/03/12 06:45:48;;;;;;;8.27;5.07;;;;;;;;;;5033594;28;20497;-73
2022/03/12 06:48:17;;;;;;;7.07;4.90;;;;;;;;;;5034618;28;20246;-74
2022/03/12 06:50:45;;;;;;;8.40;4.85;;;;;;;;;;5013314;28;20046;-71
2022/03/12 06:53:13;;;;;;;6.60;5.00;;;;;;;;;;5035085;28;20140;-72
2022/03/12 06:55:47;;;;;;;7.22;5.00;;;;;;;;;;5035157;28;20044;-70
2022/03/12 06:58:14;;;;;;;8.32;5.13;;;;;;;;;;5033318;28;20485;-71
2022/03/12 07:00:42;;;;;;;6.45;4.57;;;;;;;;;;5034459;28;20392;-71
2022/03/12 07:03:09;;;;;;;6.68;4.93;;;;;;;;;;5035127;28;20037;-72
2022/03/12 07:05:37;;;;;;;7.22;4.78;;;;;;;;;;5033992;28;20043;-70
2022/03/12 07:08:05;;;;;;;5.40;4.25;;;;;;;;;;5034899;28;20041;-70
2022/03/12 07:10:32;;;;;;;6.88;4.03;;;;;;;;;;5034819;28;20068;-70
2022/03/12 07:13:01;;;;;;;6.28;4.40;;;;;;;;;;5034435;28;20128;-73
2022/03/12 07:15:29;;;;;;;7.45;4.47;;;;;;;;;;5114398;22;20524;-73
2022/03/12 07:17:56;;;;;;;8.40;4.60;;;;;;;;;;4976245;28;20096;-76
2022/03/12 07:20:26;;;;;;;8.20;5.22;;;;;;;;;;4961898;28;20070;-76
2022/03/12 07:22:54;;;;;;;10.95;6.53;;;;;;;;;;4980575;28;20050;-77
2022/03/12 07:25:22;;;;;;;11.55;6.93;;;;;;;;;;4987227;28;20528;-75
2022/03/12 07:27:49;;;;;;;9.90;5.90;;;;;;;;;;4986101;28;20048;-76
2022/03/12 07:30:17;;;;;;;9.85;6.40;;;;;;;;;;4989765;28;20536;-76
2022/03/12 07:32:45;;;;;;;9.30;5.60;;;;;;;;;;5004601;28;20462;-73
2022/03/12 07:35:13;;;;;;;7.97;5.38;;;;;;;;;;4991061;28;20042;-76
2022/03/12 07:37:40;;;;;;;4.93;4.35;;;;;;;;;;4996428;28;20472;-76
2022/03/12 07:40:09;;;;;;;8.02;4.90;;;;;;;;;;5010280;28;20038;-76
2022/03/12 07:42:37;;;;;;;10.73;4.78;;;;;;;;;;5000719;28;20042;-77
2022/03/12 07:45:08;;;;;;;6.82;4.63;;;;;;;;;;4995109;28;20108;-78
2022/03/12 07:47:36;;;;;;;6.53;5.28;;;;;;;;;;4977553;28;20482;-77
2022/03/12 07:50:06;;;;;;;4.93;4.40;;;;;;;;;;4994757;28;20050;-78
2022/03/12 07:52:34;;;;;;;7.15;4.70;;;;;;;;;;4995258;28;20152;-76
2022/03/12 07:55:04;;;;;;;7.80;4.72;;;;;;;;;;4977629;28;20042;-73
2022/03/12 07:57:32;;;;;;;6.40;4.40;;;;;;;;;;4977492;28;20046;-76
2022/03/12 08:00:00;;;;;;;7.65;4.63;;;;;;;;;;4994086;28;20121;-76
2022/03/12 08:02:27;;;;;;;6.28;4.75;;;;;;;;;;4994640;28;20050;-78
2022/03/12 08:04:55;;;;;;;5.75;4.68;;;;;;;;;;4977414;28;20045;-73
2022/03/12 08:07:24;;;;;;;6.82;3.95;;;;;;;;;;4977648;28;20469;-73
2022/03/12 08:09:56;;;;;;;6.82;3.70;;;;;;;;;;4994311;28;20038;-76
2022/03/12 08:12:25;;;;;;;4.53;3.72;;;;;;;;;;4976876;28;20465;-77
2022/03/12 08:14:54;;;;;;;6.47;4.20;;;;;;;;;;4994150;28;20049;-78
2022/03/12 08:17:23;;;;;;;6.00;4.32;;;;;;;;;;5016570;28;20041;-78
2022/03/12 08:19:51;;;;;;;6.07;4.47;;;;;;;;;;5032363;28;20123;-78
2022/03/12 08:22:20;;;;;;;5.00;4.45;;;;;;;;;;4995809;28;20049;-73
2022/03/12 08:24:48;;;;;;;4.78;4.28;;;;;;;;;;5013794;28;20121;-73
2022/03/12 08:27:16;;;;;;;8.90;5.10;;;;;;;;;;5013468;28;20042;-77
2022/03/12 08:29:49;;;;;;;;;;;;;;;;;;5013959;28;20129;-73
2022/03/12 08:32:16;;;;;;;9.38;4.85;;;;;;;;;;5013405;28;19933;-77
2022/03/12 08:34:46;;;;;;;7.50;4.28;;;;;;;;;;5013224;28;20042;-73
2022/03/12 08:37:15;;;;;;;7.95;4.50;;;;;;;;;;5013300;28;20125;-80
2022/03/12 08:39:43;;;;;;;8.32;4.65;;;;;;;;;;5013524;28;20108;-77
2022/03/12 08:42:11;;;;;;;8.48;4.78;;;;;;;;;;5013442;28;20042;-77
2022/03/12 08:44:39;;;;;;;7.72;4.80;;;;;;;;;;5013606;28;20056;-73
2022/03/12 08:47:07;;;;;;;8.50;4.80;;;;;;;;;;5013012;28;20073;-78
2022/03/12 08:49:35;;;;;;;7.18;4.47;;;;;;;;;;4994799;28;20056;-77
2022/03/12 08:52:05;;;;;;;7.07;4.53;;;;;;;;;;5010004;28;20464;-76
2022/03/12 08:54:32;;;;;;;6.10;4.57;;;;;;;;;;5013064;28;20042;-75
2022/03/12 08:57:00;;;;;;;7.05;4.38;;;;;;;;;;5013173;28;20505;-76
2022/03/12 08:59:28;;;;;;;5.18;4.07;;;;;;;;;;5012528;28;20054;-75
2022/03/12 09:01:56;;;;;;;6.45;4.50;;;;;;;;;;5013214;28;20049;-80
2022/03/12 09:04:24;;;;;;;7.65;4.15;;;;;;;;;;5012847;28;20057;-77
2022/03/12 09:06:52;;;;;;;6.18;4.47;;;;;;;;;;5013001;28;20052;-76
2022/03/12 09:09:21;;;;;;;9.13;5.10;;;;;;;;;;4995696;28;20046;-78
2022/03/12 09:11:49;;;;;;;8.05;5.03;;;;;;;;;;5012371;28;20061;-77
2022/03/12 09:14:18;;;;;;;7.18;4.57;;;;;;;;;;5013777;28;20400;-75
2022/03/12 09:16:46;;;;;;;6.75;4.95;;;;;;;;;;5030558;28;20045;-77
2022/03/12 09:19:13;;;;;;;6.53;4.88;;;;;;;;;;4995763;28;20448;-75
2022/03/12 09:21:42;;;;;;;9.60;6.38;;;;;;;;;;4994749;28;20057;-71
2022/03/12 09:24:11;;;;;;;7.10;5.05;;;;;;;;;;5023188;28;20051;-77
2022/03/12 09:26:39;;;;;;;7.47;5.00;;;;;;;;;;5032483;28;20052;-74
2022/03/12 09:29:06;;;;;;;6.15;4.60;;;;;;;;;;5029434;28;20038;-73
2022/03/12 09:31:34;;;;;;;7.32;3.45;;;;;;;;;;5014290;28;20520;-72
2022/03/12 09:34:02;;;;;;;5.05;3.55;;;;;;;;;;5032325;28;20045;-75
2022/03/12 09:36:30;;;;;;;11.63;4.25;;;;;;;;;;5032516;28;20104;-76
2022/03/12 09:38:59;;;;;;;7.28;3.70;;;;;;;;;;5032644;28;20045;-73
2022/03/12 09:41:27;;;;;;;6.13;3.55;;;;;;;;;;5032786;28;20033;-75
2022/03/12 09:43:54;;;;;;;7.05;4.00;;;;;;;;;;5032575;28;20045;-76
2022/03/12 09:46:22;;;;;;;9.57;3.70;;;;;;;;;;5032097;28;20057;-75
2022/03/12 09:48:49;;;;;;;7.35;3.50;;;;;;;;;;5032675;28;20041;-75
2022/03/12 09:51:17;;;;;;;7.97;3.72;;;;;;;;;;5032493;28;20047;-72
2022/03/12 09:53:45;;;;;;;7.47;4.00;;;;;;;;;;5032737;28;20052;-73
2022/03/12 09:56:12;;;;;;;8.23;3.60;;;;;;;;;;5015159;28;20124;-73
2022/03/12 09:58:41;;;;;;;10.02;3.75;;;;;;;;;;5032189;28;20124;-75
2022/03/12 10:01:10;;;;;;;6.75;3.60;;;;;;;;;;5033758;28;20104;-72
2022/03/12 10:03:43;;;;;;;9.25;3.95;;;;;;;;;;5036443;28;20045;-75
2022/03/12 10:06:11;;;;;;;7.97;3.50;;;;;;;;;;5036637;28;20408;-76
2022/03/12 10:08:43;;;;;;;8.35;3.40;;;;;;;;;;5036702;28;20124;-76
2022/03/12 10:11:11;;;;;;;8.05;3.90;;;;;;;;;;5036031;28;20444;-72
2022/03/12 10:13:39;;;;;;;8.68;3.92;;;;;;;;;;5036198;28;20041;-75
2022/03/12 10:16:09;;;;;;;10.90;3.45;;;;;;;;;;5036308;28;20049;-76
2022/03/12 10:18:39;;;;;;;6.43;3.75;;;;;;;;;;5036037;28;20041;-75
2022/03/12 10:21:06;;;;;;;12.13;4.10;;;;;;;;;;5036050;28;20055;-76
2022/03/12 10:23:34;;;;;;;10.70;3.50;;;;;;;;;;5035525;28;20044;-75
2022/03/12 10:26:02;;;;;;;9.25;3.80;;;;;;;;;;5018319;28;20451;-76
2022/03/12 10:28:34;;;;;;;8.77;3.58;;;;;;;;;;5036303;28;20045;-75
2022/03/12 10:31:07;;;;;;;6.50;3.38;;;;;;;;;;5035614;28;20382;-75
2022/03/12 10:33:36;;;;;;;5.63;3.42;;;;;;;;;;5035698;28;20052;-75
2022/03/12 10:36:16;;;;;;;7.50;3.55;;;;;;;;;;5035700;28;20112;-73
2022/03/12 10:38:48;;;;;;;7.93;4.00;;;;;;;;;;5035787;28;20128;-75
2022/03/12 10:41:17;;;;;;;6.97;3.45;;;;;;;;;;5035843;28;20097;-75
2022/03/12 10:43:49;;;;;;;7.90;3.50;;;;;;;;;;5035443;28;20080;-75
2022/03/12 10:46:23;;;;;;;10.07;3.17;;;;;;;;;;5017412;28;20055;-75
2022/03/12 10:48:58;;;;;;;9.18;3.75;;;;;;;;;;5035993;28;20064;-75
2022/03/12 10:51:35;;;;;;;6.80;3.15;;;;;;;;;;5035649;28;20045;-75
2022/03/12 10:54:07;;;;;;;7.85;3.25;;;;;;;;;;5035360;28;20473;-73
2022/03/12 10:56:43;;;;;;;8.27;3.53;;;;;;;;;;5035598;28;20045;-75
2022/03/12 10:59:11;;;;;;;6.35;3.38;;;;;;;;;;5035036;28;20408;-75
2022/03/12 11:01:45;;;;;;;7.95;3.78;;;;;;;;;;5035354;28;20045;-75
2022/03/12 11:04:17;;;;;;;7.05;3.58;;;;;;;;;;5035392;28;20511;-75
2022/03/12 11:06:45;;;;;;;9.98;3.50;;;;;;;;;;5018160;28;20041;-73
2022/03/12 11:09:16;;;;;;;8.70;4.10;;;;;;;;;;5035584;28;20132;-72
2022/03/12 11:11:45;;;;;;;8.45;3.50;;;;;;;;;;5017937;28;20063;-73
2022/03/12 11:14:20;;;;;;;4.70;3.05;;;;;;;;;;5034256;28;20095;-75
2022/03/12 11:16:55;;;;;;;7.93;3.22;;;;;;;;;;5034360;28;20571;-73
2022/03/12 11:19:42;;;;;;;11.20;3.80;;;;;;;;;;5034492;28;20045;-75
2022/03/12 11:22:14;;;;;;;9.75;3.70;;;;;;;;;;5034948;28;20048;-75
2022/03/12 11:24:44;;;;;;;9.60;3.67;;;;;;;;;;5034428;28;20059;-75
2022/03/12 11:27:14;;;;;;;6.78;3.65;;;;;;;;;;5034405;28;20120;-75
2022/03/12 11:29:42;;;;;;;9.77;4.03;;;;;;;;;;5034678;28;20041;-75
2022/03/12 11:32:09;;;;;;;8.82;3.58;;;;;;;;;;5034693;28;20037;-75
2022/03/12 11:34:39;;;;;;;11.13;3.70;;;;;;;;;;5033886;28;20041;-73
2022/03/12 11:37:17;;;;;;;12.75;3.75;;;;;;;;;;5034169;28;20115;-75
2022/03/12 11:39:49;;;;;;;7.47;3.90;;;;;;;;;;5034121;28;20608;-75
2022/03/12 11:42:26;;;;;;;5.75;3.45;;;;;;;;;;5016662;28;20047;-72
2022/03/12 11:44:57;;;;;;;14.90;4.75;;;;;;;;;;5031780;28;20037;-76
2022/03/12 11:47:34;;;;;;;8.88;3.42;;;;;;;;;;5033749;28;20049;-75
2022/03/12 11:50:03;;;;;;;7.60;3.60;;;;;;;;;;5016454;28;20106;-75
2022/03/12 11:52:31;;;;;;;8.07;3.78;;;;;;;;;;5034512;28;20029;-76
2022/03/12 11:55:00;;;;;;;4.40;3.35;;;;;;;;;;5034246;28;20046;-75
2022/03/12 11:57:30;;;;;;;8.13;4.30;;;;;;;;;;5033929;28;20041;-73
2022/03/12 11:59:58;;;;;;;9.60;3.72;;;;;;;;;;5016865;28;20124;-74
2022/03/12 12:02:32;;;;;;;8.88;4.57;;;;;;;;;;5033745;28;20060;-75
2022/03/12 12:05:03;;;;;;;6.65;4.55;;;;;;;;;;5033943;28;20046;-74
2022/03/12 12:07:36;;;;;;;7.63;3.83;;;;;;;;;;5034162;28;20076;-74
2022/03/12 12:10:06;;;;;;;12.23;3.95;;;;;;;;;;5033461;28;20068;-72
2022/03/12 12:12:43;;;;;;;14.00;4.03;;;;;;;;;;5016268;28;20121;-72
2022/03/12 12:15:14;;;;;;;9.82;3.53;;;;;;;;;;5015750;28;20091;-75
2022/03/12 12:17:43;;;;;;;3.53;3.20;;;;;;;;;;5032493;28;20041;-74
2022/03/12 12:20:14;;;;;;;8.55;3.55;;;;;;;;;;5033824;28;20103;-72
2022/03/12 12:22:42;;;;;;;10.57;3.80;;;;;;;;;;5033363;28;20497;-75
2022/03/12 12:25:10;;;;;;;6.07;3.40;;;;;;;;;;5033702;28;20048;-75
2022/03/12 12:27:46;;;;;;;6.70;3.90;;;;;;;;;;5033810;28;20041;-75
2022/03/12 12:30:20;;;;;;;8.80;3.60;;;;;;;;;;5033601;28;20042;-74
2022/03/12 12:32:49;;;;;;;5.47;3.78;;;;;;;;;;5033929;28;20398;-74
2022/03/12 12:35:18;;;;;;;7.38;3.60;;;;;;;;;;5033188;28;20045;-74
2022/03/12 12:37:52;;;;;;;8.13;4.07;;;;;;;;;;5033568;28;20042;-75
2022/03/12 12:40:21;;;;;;;11.63;3.65;;;;;;;;;;4999357;28;20056;-74
2022/03/12 12:42:49;;;;;;;6.22;4.18;;;;;;;;;;5033019;28;20056;-74
2022/03/12 12:45:18;;;;;;;7.80;3.55;;;;;;;;;;5033554;28;20056;-75
2022/03/12 12:47:46;;;;;;;6.38;3.95;;;;;;;;;;5015320;28;20068;-75
2022/03/12 12:50:21;;;;;;;7.03;3.92;;;;;;;;;;5033463;28;20048;-72
2022/03/12 12:53:09;;;;;;;6.10;3.72;;;;;;;;;;5033650;28;20095;-75
2022/03/12 12:55:37;;;;;;;9.90;3.90;;;;;;;;;;5033365;28;20091;-75
2022/03/12 12:58:05;;;;;;;13.40;3.83;;;;;;;;;;5032912;28;20120;-76
2022/03/12 13:00:34;;;;;;;7.07;3.67;;;;;;;;;;5032526;28;20047;-72
2022/03/12 13:03:07;;;;;;;4.32;3.53;;;;;;;;;;5015623;28;20041;-75
2022/03/12 13:05:56;;;;;;;8.95;3.72;;;;;;;;;;5032535;28;20145;-75
2022/03/12 13:08:44;;;;;;;9.43;3.53;;;;;;;;;;5031556;28;20041;-75
2022/03/12 13:11:32;;;;;;;6.38;4.00;;;;;;;;;;5030929;28;20568;-75
2022/03/12 13:14:02;;;;;;;9.50;3.83;;;;;;;;;;5030735;28;20048;-73
2022/03/12 13:16:47;;;;;;;6.40;3.67;;;;;;;;;;5031610;28;20145;-74
2022/03/12 13:19:32;;;;;;;7.75;3.85;;;;;;;;;;5012435;28;20433;-76
2022/03/12 13:22:04;;;;;;;6.97;3.80;;;;;;;;;;5013327;28;20045;-74
2022/03/12 13:24:45;;;;;;;7.25;3.42;;;;;;;;;;5013745;28;20037;-74
2022/03/12 13:27:35;;;;;;;7.13;3.50;;;;;;;;;;5032278;28;20048;-74
2022/03/12 13:30:09;;;;;;;8.43;3.70;;;;;;;;;;5012635;28;20585;-75
2022/03/12 13:32:38;;;;;;;7.28;3.50;;;;;;;;;;4997957;28;20095;-75
2022/03/12 13:35:08;;;;;;;14.75;5.68;;;;;;;;;;5031905;28;20381;-74
2022/03/12 13:37:43;;;;;;;4.25;3.35;;;;;;;;;;5021256;28;20537;-74
2022/03/12 13:40:20;;;;;;;10.10;4.78;;;;;;;;;;5021519;28;20104;-72
2022/03/12 13:42:56;;;;;;;10.10;3.83;;;;;;;;;;5009843;28;20049;-75
2022/03/12 13:45:27;;;;;;;11.50;4.18;;;;;;;;;;5019571;28;20406;-72
2022/03/12 13:48:01;;;;;;;9.90;3.80;;;;;;;;;;5021190;28;20111;-75
2022/03/12 13:50:29;;;;;;;6.78;4.10;;;;;;;;;;5037784;28;20280;-75
2022/03/12 13:53:01;;;;;;;9.95;4.85;;;;;;;;;;5038340;28;20099;-75
2022/03/12 13:55:31;;;;;;;11.60;5.30;;;;;;;;;;5037431;28;20056;-75
2022/03/12 13:58:04;;;;;;;13.90;6.00;;;;;;;;;;5038349;28;20038;-72
2022/03/12 14:00:35;;;;;;;10.35;5.78;;;;;;;;;;5035934;28;20048;-71
2022/03/12 14:03:11;;;;;;;8.27;5.43;;;;;;;;;;5038007;28;20137;-72
2022/03/12 14:05:41;;;;;;;8.15;5.13;;;;;;;;;;5003003;28;20427;-74
2022/03/12 14:08:22;;;;;;;10.52;4.90;;;;;;;;;;5019696;28;20603;-73
2022/03/12 14:10:52;;;;;;;9.90;5.13;;;;;;;;;;5019792;28;20041;-75
2022/03/12 14:13:20;;;;;;;12.07;5.03;;;;;;;;;;5037826;28;20037;-75
2022/03/12 14:15:49;;;;;;;12.25;5.70;;;;;;;;;;5034696;28;20041;-76
2022/03/12 14:18:24;;;;;;;11.60;5.43;;;;;;;;;;4993879;28;20478;-72
2022/03/12 14:20:52;;;;;;;7.70;4.60;;;;;;;;;;4997839;28;20132;-75
2022/03/12 14:23:25;;;;;;;11.50;5.30;;;;;;;;;;5000431;28;20041;-74
2022/03/12 14:26:00;;;;;;;8.77;5.38;;;;;;;;;;5016510;28;20096;-74
2022/03/12 14:28:28;;;;;;;13.55;6.10;;;;;;;;;;5013412;28;20120;-76
2022/03/12 14:30:56;;;;;;;8.05;5.80;;;;;;;;;;5014565;28;20056;-73
2022/03/12 14:33:25;;;;;;;10.77;6.07;;;;;;;;;;5015066;28;20035;-73
2022/03/12 14:35:53;;;;;;;9.32;6.10;;;;;;;;;;5009351;28;20030;-73
2022/03/12 14:38:21;;;;;;;8.60;5.43;;;;;;;;;;5012349;28;20049;-73
2022/03/12 14:40:50;;;;;;;7.60;5.22;;;;;;;;;;5013775;28;20042;-73
2022/03/12 14:43:19;;;;;;;7.50;5.30;;;;;;;;;;4999420;28;20088;-74
2022/03/12 14:45:48;;;;;;;14.10;5.38;;;;;;;;;;5015966;28;20468;-74
2022/03/12 14:48:19;;;;;;;9.00;5.13;;;;;;;;;;4993822;28;20052;-76
2022/03/12 14:50:46;;;;;;;7.93;5.05;;;;;;;;;;5001596;28;20038;-76
2022/03/12 14:53:17;;;;;;;6.00;4.72;;;;;;;;;;4997451;28;20462;-76
2022/03/12 14:55:45;;;;;;;9.27;4.90;;;;;;;;;;4999725;28;20041;-78
2022/03/12 14:58:13;;;;;;;8.10;4.75;;;;;;;;;;5003501;28;20033;-76